Time;durP1;ratioP1;P1;durP2;ratioP2;P2;SDS_P1;SDS_P2;PMS_P1;PMS_P2;Temp;Humidity;BMP_temperature;BMP_pressure;BME280_temperature;BME280_humidity;BME280_pressure;Samples;Min_cycle;Max_cycle;Signal;HPM_P1;HPM_P2
2021/03/09 00:02:09;;;;;;;49.35;22.45;;;;;;;;;;5018078;28;20033;-76
2021/03/09 00:04:35;;;;;;;47.92;21.05;;;;;;;;;;5017314;28;20025;-76
2021/03/09 00:07:01;;;;;;;45.83;19.88;;;;;;;;;;5017460;28;20097;-76
2021/03/09 00:09:27;;;;;;;36.85;14.20;;;;;;;;;;5022257;28;20030;-77
2021/03/09 00:11:53;;;;;;;55.50;21.77;;;;;;;;;;5018746;28;20045;-76
2021/03/09 00:14:19;;;;;;;46.47;21.83;;;;;;;;;;5024394;28;20120;-75
2021/03/09 00:16:45;;;;;;;47.30;21.15;;;;;;;;;;5016417;28;20146;-75
2021/03/09 00:19:11;;;;;;;47.95;20.85;;;;;;;;;;5017724;28;20215;-76
2021/03/09 00:21:37;;;;;;;55.53;23.27;;;;;;;;;;5018937;28;20184;-75
2021/03/09 00:24:03;;;;;;;52.42;21.65;;;;;;;;;;5019687;28;20653;-76
2021/03/09 00:26:30;;;;;;;46.75;18.05;;;;;;;;;;5018288;28;20049;-76
2021/03/09 00:28:56;;;;;;;53.63;23.65;;;;;;;;;;5017067;28;20084;-77
2021/03/09 00:31:22;;;;;;;37.88;14.93;;;;;;;;;;5018539;28;20495;-77
2021/03/09 00:33:48;;;;;;;58.05;22.65;;;;;;;;;;5016211;28;20048;-76
2021/03/09 00:36:14;;;;;;;50.80;24.17;;;;;;;;;;5019675;28;20039;-76
2021/03/09 00:38:40;;;;;;;56.08;24.88;;;;;;;;;;5015471;28;20025;-76
2021/03/09 00:41:06;;;;;;;48.15;21.48;;;;;;;;;;5027157;28;20041;-77
2021/03/09 00:43:32;;;;;;;57.92;25.40;;;;;;;;;;5024059;28;20103;-77
2021/03/09 00:45:58;;;;;;;59.95;27.15;;;;;;;;;;5023306;28;20026;-77
2021/03/09 00:48:25;;;;;;;60.50;26.67;;;;;;;;;;5021766;28;20018;-79
2021/03/09 00:50:51;;;;;;;59.85;25.45;;;;;;;;;;5028822;28;20025;-79
2021/03/09 00:53:17;;;;;;;62.10;26.75;;;;;;;;;;5035181;28;20068;-79
2021/03/09 00:55:43;;;;;;;66.85;29.15;;;;;;;;;;5029960;28;20045;-79
2021/03/09 00:58:09;;;;;;;69.53;32.65;;;;;;;;;;5032250;28;20045;-79
2021/03/09 01:00:35;;;;;;;63.85;28.30;;;;;;;;;;5038426;28;20029;-78
2021/03/09 01:03:01;;;;;;;75.47;29.15;;;;;;;;;;5030240;28;20026;-78
2021/03/09 01:05:27;;;;;;;69.30;32.47;;;;;;;;;;5021151;28;20124;-78
2021/03/09 01:07:53;;;;;;;77.30;33.70;;;;;;;;;;5028904;28;20029;-79
2021/03/09 01:10:20;;;;;;;74.00;33.72;;;;;;;;;;5019791;28;20041;-77
2021/03/09 01:12:46;;;;;;;83.45;34.70;;;;;;;;;;5026500;28;20025;-77
2021/03/09 01:15:12;;;;;;;77.90;35.67;;;;;;;;;;5022922;28;20056;-77
2021/03/09 01:17:38;;;;;;;77.85;35.47;;;;;;;;;;5028362;28;20084;-77
2021/03/09 01:20:06;;;;;;;87.97;39.42;;;;;;;;;;5024187;28;20025;-78
2021/03/09 01:22:32;;;;;;;77.03;34.00;;;;;;;;;;5022005;28;20021;-77
2021/03/09 01:24:59;;;;;;;72.45;31.55;;;;;;;;;;5024977;28;20018;-78
2021/03/09 01:27:25;;;;;;;88.80;35.47;;;;;;;;;;5032237;28;20029;-78
2021/03/09 01:29:51;;;;;;;80.85;33.83;;;;;;;;;;5029620;28;20041;-78
2021/03/09 01:32:17;;;;;;;74.95;35.65;;;;;;;;;;5032884;28;20483;-77
2021/03/09 01:34:43;;;;;;;74.90;36.53;;;;;;;;;;5025718;28;20953;-77
2021/03/09 01:37:09;;;;;;;82.40;37.40;;;;;;;;;;5031944;28;20164;-77
2021/03/09 01:39:35;;;;;;;78.70;35.80;;;;;;;;;;5026454;28;20034;-78
2021/03/09 01:42:01;;;;;;;87.57;41.53;;;;;;;;;;5026801;28;20056;-77
2021/03/09 01:44:27;;;;;;;89.40;38.40;;;;;;;;;;5022844;28;20052;-77
2021/03/09 01:46:55;;;;;;;87.93;34.78;;;;;;;;;;5021698;28;20108;-77
2021/03/09 01:49:21;;;;;;;88.60;38.78;;;;;;;;;;5029921;28;20423;-78
2021/03/09 01:51:48;;;;;;;75.82;33.72;;;;;;;;;;5036658;28;20051;-77
2021/03/09 01:54:14;;;;;;;99.68;42.13;;;;;;;;;;5043715;28;20116;-77
2021/03/09 01:56:41;;;;;;;65.78;30.30;;;;;;;;;;5030626;28;20030;-79
2021/03/09 01:59:08;;;;;;;98.57;41.47;;;;;;;;;;5025964;28;20034;-78
2021/03/09 02:01:37;;;;;;;105.85;45.22;;;;;;;;;;5026809;28;20517;-76
2021/03/09 02:04:04;;;;;;;98.82;40.58;;;;;;;;;;5032654;28;20012;-78
2021/03/09 02:06:30;;;;;;;95.65;40.88;;;;;;;;;;5026271;28;20504;-78
2021/03/09 02:08:57;;;;;;;108.10;45.28;;;;;;;;;;5025799;28;20029;-77
2021/03/09 02:11:30;;;;;;;98.90;46.40;;;;;;;;;;5022813;28;20057;-77
2021/03/09 02:14:06;;;;;;;90.43;38.55;;;;;;;;;;5029982;28;20053;-78
2021/03/09 02:16:35;;;;;;;100.20;43.05;;;;;;;;;;5022074;28;20034;-77
2021/03/09 02:19:20;;;;;;;111.78;46.88;;;;;;;;;;5029767;28;20046;-77
2021/03/09 02:21:59;;;;;;;108.95;48.53;;;;;;;;;;5020551;28;20056;-77
2021/03/09 02:24:37;;;;;;;103.80;43.40;;;;;;;;;;5026022;28;20028;-77
2021/03/09 02:27:09;;;;;;;110.07;47.28;;;;;;;;;;5017691;28;20083;-77
2021/03/09 02:29:41;;;;;;;106.45;42.67;;;;;;;;;;5021949;28;20057;-78
2021/03/09 02:32:10;;;;;;;98.60;46.88;;;;;;;;;;5019828;28;20034;-78
2021/03/09 02:34:37;;;;;;;98.07;44.00;;;;;;;;;;5032390;28;20029;-76
2021/03/09 02:37:06;;;;;;;95.30;42.50;;;;;;;;;;5022701;28;20033;-79
2021/03/09 02:39:32;;;;;;;109.57;44.30;;;;;;;;;;5013905;28;20133;-77
2021/03/09 02:42:00;;;;;;;102.75;42.90;;;;;;;;;;5027802;28;20014;-77
2021/03/09 02:44:27;;;;;;;91.63;41.30;;;;;;;;;;5023802;28;20018;-80
2021/03/09 02:46:53;;;;;;;100.70;43.95;;;;;;;;;;5022075;28;20084;-76
2021/03/09 02:49:19;;;;;;;104.13;39.15;;;;;;;;;;5017467;28;20030;-76
2021/03/09 02:51:46;;;;;;;58.92;28.65;;;;;;;;;;5027573;28;20036;-76
2021/03/09 02:54:14;;;;;;;105.18;45.25;;;;;;;;;;5023195;28;20048;-77
2021/03/09 02:56:41;;;;;;;104.93;45.35;;;;;;;;;;5027306;28;20632;-78
2021/03/09 02:59:09;;;;;;;97.75;44.47;;;;;;;;;;5027003;28;20419;-76
2021/03/09 03:01:36;;;;;;;84.22;36.35;;;;;;;;;;5027786;28;20034;-78
2021/03/09 03:04:03;;;;;;;100.85;40.22;;;;;;;;;;5019419;28;20087;-77
2021/03/09 03:06:31;;;;;;;105.90;44.67;;;;;;;;;;5020040;28;20022;-76
2021/03/09 03:08:57;;;;;;;98.18;40.90;;;;;;;;;;5029039;28;20033;-77
2021/03/09 03:11:24;;;;;;;109.25;47.22;;;;;;;;;;5023927;28;20042;-76
2021/03/09 03:13:53;;;;;;;98.53;44.33;;;;;;;;;;5027018;28;20033;-76
2021/03/09 03:16:20;;;;;;;98.25;44.60;;;;;;;;;;5022017;28;20752;-77
2021/03/09 03:18:47;;;;;;;101.60;44.15;;;;;;;;;;5011882;28;20026;-76
2021/03/09 03:21:14;;;;;;;105.45;43.78;;;;;;;;;;5028857;28;20028;-76
2021/03/09 03:23:41;;;;;;;100.75;45.13;;;;;;;;;;5027762;28;20017;-76
2021/03/09 03:26:07;;;;;;;103.32;43.95;;;;;;;;;;5025701;28;20022;-76
2021/03/09 03:28:35;;;;;;;93.40;39.83;;;;;;;;;;5028218;28;20040;-76
2021/03/09 03:31:03;;;;;;;99.85;43.75;;;;;;;;;;5019029;28;20025;-76
2021/03/09 03:33:29;;;;;;;109.30;45.20;;;;;;;;;;5018368;28;20088;-75
2021/03/09 03:36:03;;;;;;;111.43;42.30;;;;;;;;;;5030715;28;20028;-76
2021/03/09 03:38:29;;;;;;;107.63;44.85;;;;;;;;;;5019705;28;20029;-76
2021/03/09 03:40:55;;;;;;;102.22;45.35;;;;;;;;;;5024144;28;20109;-77
2021/03/09 03:43:21;;;;;;;91.35;38.42;;;;;;;;;;5019943;28;20030;-77
2021/03/09 03:45:47;;;;;;;100.38;41.50;;;;;;;;;;5022783;28;20053;-79
2021/03/09 03:48:13;;;;;;;105.15;44.38;;;;;;;;;;5025679;28;20018;-81
2021/03/09 03:50:39;;;;;;;99.25;42.75;;;;;;;;;;5027091;28;20059;-79
2021/03/09 03:53:24;;;;;;;106.97;44.70;;;;;;;;;;5029395;28;20037;-79
2021/03/09 03:56:01;;;;;;;110.35;43.85;;;;;;;;;;5027705;28;20100;-79
2021/03/09 03:58:30;;;;;;;87.07;35.08;;;;;;;;;;5025697;28;20025;-82
2021/03/09 04:00:58;;;;;;;105.03;45.03;;;;;;;;;;5032871;28;20021;-77
2021/03/09 04:03:24;;;;;;;111.35;46.03;;;;;;;;;;5020461;28;20042;-77
2021/03/09 04:05:52;;;;;;;113.38;44.75;;;;;;;;;;5022625;28;20476;-76
2021/03/09 04:08:18;;;;;;;102.65;43.10;;;;;;;;;;5021668;28;20480;-79
2021/03/09 04:10:47;;;;;;;107.80;46.80;;;;;;;;;;5027199;28;20419;-76
2021/03/09 04:13:14;;;;;;;106.80;47.95;;;;;;;;;;5030203;28;20022;-76
2021/03/09 04:15:41;;;;;;;105.20;47.40;;;;;;;;;;5021615;28;20018;-77
2021/03/09 04:18:07;;;;;;;117.63;45.70;;;;;;;;;;5011178;28;20552;-76
2021/03/09 04:20:35;;;;;;;109.22;47.25;;;;;;;;;;5016074;28;20026;-76
2021/03/09 04:23:03;;;;;;;112.80;48.78;;;;;;;;;;5025434;28;20385;-77
2021/03/09 04:25:29;;;;;;;106.22;44.38;;;;;;;;;;5021614;28;20052;-77
2021/03/09 04:27:56;;;;;;;98.55;39.58;;;;;;;;;;5021863;28;20025;-78
2021/03/09 04:30:22;;;;;;;115.90;46.85;;;;;;;;;;5017830;28;20112;-77
2021/03/09 04:32:48;;;;;;;101.32;43.28;;;;;;;;;;5027421;28;20083;-76
2021/03/09 04:35:14;;;;;;;106.30;48.25;;;;;;;;;;5023095;28;20065;-76
2021/03/09 04:37:41;;;;;;;102.75;44.20;;;;;;;;;;5030615;28;20060;-77
2021/03/09 04:40:08;;;;;;;99.95;42.85;;;;;;;;;;5024538;28;20030;-77
2021/03/09 04:42:34;;;;;;;89.75;41.90;;;;;;;;;;5027530;28;20039;-75
2021/03/09 04:45:00;;;;;;;101.07;43.28;;;;;;;;;;5024891;28;20495;-76
2021/03/09 04:47:28;;;;;;;100.50;42.13;;;;;;;;;;5023342;28;20006;-76
2021/03/09 04:49:55;;;;;;;99.28;42.53;;;;;;;;;;5023130;28;20036;-76
2021/03/09 04:52:21;;;;;;;100.75;43.75;;;;;;;;;;5026124;28;20411;-76
2021/03/09 04:54:48;;;;;;;98.25;43.83;;;;;;;;;;5023580;28;20022;-76
2021/03/09 04:57:14;;;;;;;99.43;41.83;;;;;;;;;;5030068;28;20511;-76
2021/03/09 04:59:40;;;;;;;91.55;40.92;;;;;;;;;;5022805;28;20057;-76
2021/03/09 05:02:06;;;;;;;90.35;39.25;;;;;;;;;;5020243;28;20496;-76
2021/03/09 05:04:32;;;;;;;87.72;40.28;;;;;;;;;;5015732;28;20021;-76
2021/03/09 05:06:58;;;;;;;84.82;38.67;;;;;;;;;;5028819;28;20029;-75
2021/03/09 05:09:24;;;;;;;84.10;40.13;;;;;;;;;;5019864;28;20018;-76
2021/03/09 05:11:50;;;;;;;81.95;37.40;;;;;;;;;;5025459;28;20060;-76
2021/03/09 05:14:17;;;;;;;79.95;36.03;;;;;;;;;;5027352;28;20033;-76
2021/03/09 05:16:43;;;;;;;77.43;35.10;;;;;;;;;;5028511;28;20049;-76
2021/03/09 05:19:09;;;;;;;77.40;35.15;;;;;;;;;;5034992;28;20076;-77
2021/03/09 05:21:35;;;;;;;60.35;30.42;;;;;;;;;;5022443;28;20491;-76
2021/03/09 05:24:02;;;;;;;48.47;25.77;;;;;;;;;;5025720;28;20025;-76
2021/03/09 05:26:30;;;;;;;48.58;26.00;;;;;;;;;;5024276;28;20546;-76
2021/03/09 05:28:56;;;;;;;43.45;24.45;;;;;;;;;;5026108;28;20029;-76
2021/03/09 05:31:23;;;;;;;47.45;24.10;;;;;;;;;;5019732;28;20025;-76
2021/03/09 05:33:49;;;;;;;45.90;22.40;;;;;;;;;;5023723;28;20039;-76
2021/03/09 05:36:15;;;;;;;42.03;22.65;;;;;;;;;;5025363;28;20052;-76
2021/03/09 05:38:41;;;;;;;37.03;19.90;;;;;;;;;;5023706;28;20059;-76
2021/03/09 05:41:07;;;;;;;42.65;21.65;;;;;;;;;;5022429;28;20041;-76
2021/03/09 05:43:33;;;;;;;42.80;21.10;;;;;;;;;;5021873;28;20040;-75
2021/03/09 05:46:00;;;;;;;44.67;21.58;;;;;;;;;;5027035;28;20518;-76
2021/03/09 05:48:26;;;;;;;46.40;21.88;;;;;;;;;;5028712;28;20018;-77
2021/03/09 05:50:54;;;;;;;42.38;21.05;;;;;;;;;;5031594;28;20093;-76
2021/03/09 05:53:21;;;;;;;38.47;23.45;;;;;;;;;;5023315;28;20029;-76
2021/03/09 05:55:47;;;;;;;40.25;21.15;;;;;;;;;;5026232;28;20037;-76
2021/03/09 05:58:13;;;;;;;45.08;22.85;;;;;;;;;;5023252;28;20040;-78
2021/03/09 06:00:39;;;;;;;45.60;23.48;;;;;;;;;;5023794;28;20029;-76
2021/03/09 06:03:06;;;;;;;45.50;22.75;;;;;;;;;;5024468;28;20566;-76
2021/03/09 06:05:32;;;;;;;44.88;22.73;;;;;;;;;;5032312;28;20021;-75
2021/03/09 06:07:59;;;;;;;44.80;23.48;;;;;;;;;;5031072;28;20028;-77
2021/03/09 06:10:25;;;;;;;54.95;23.85;;;;;;;;;;5014653;28;20038;-76
2021/03/09 06:12:52;;;;;;;44.50;23.38;;;;;;;;;;5024341;28;20053;-76
2021/03/09 06:15:18;;;;;;;48.90;24.63;;;;;;;;;;5026703;28;20502;-76
2021/03/09 06:17:52;;;;;;;44.00;24.70;;;;;;;;;;5030615;28;20065;-76
2021/03/09 06:20:18;;;;;;;42.33;23.75;;;;;;;;;;5026710;28;20037;-76
2021/03/09 06:22:45;;;;;;;52.33;24.48;;;;;;;;;;5027113;28;20092;-76
2021/03/09 06:25:12;;;;;;;44.45;24.30;;;;;;;;;;5025055;28;20033;-76
2021/03/09 06:27:39;;;;;;;44.60;21.90;;;;;;;;;;5022923;28;20087;-76
2021/03/09 06:30:09;;;;;;;45.45;23.55;;;;;;;;;;5024360;28;20112;-76
2021/03/09 06:32:40;;;;;;;42.97;22.25;;;;;;;;;;5021854;28;20040;-76
2021/03/09 06:35:06;;;;;;;39.03;23.27;;;;;;;;;;5020899;28;20029;-76
2021/03/09 06:37:32;;;;;;;42.65;22.35;;;;;;;;;;5031070;28;20621;-76
2021/03/09 06:40:02;;;;;;;42.45;24.95;;;;;;;;;;5028555;28;20242;-76
2021/03/09 06:42:31;;;;;;;48.00;23.70;;;;;;;;;;5027754;28;20091;-76
2021/03/09 06:45:01;;;;;;;47.67;26.25;;;;;;;;;;5021284;28;20637;-76
2021/03/09 06:47:34;;;;;;;41.40;22.92;;;;;;;;;;5019921;28;20075;-75
2021/03/09 06:50:00;;;;;;;43.00;22.52;;;;;;;;;;5016764;28;20025;-76
2021/03/09 06:52:26;;;;;;;38.75;22.92;;;;;;;;;;5023803;28;20013;-75
2021/03/09 06:54:53;;;;;;;38.17;22.77;;;;;;;;;;5028761;28;20499;-76
2021/03/09 06:57:20;;;;;;;38.17;22.33;;;;;;;;;;5024717;28;20053;-75
2021/03/09 06:59:50;;;;;;;48.67;23.20;;;;;;;;;;5018455;28;20038;-75
2021/03/09 07:02:23;;;;;;;46.50;24.23;;;;;;;;;;5026642;28;20021;-76
2021/03/09 07:05:09;;;;;;;41.15;21.75;;;;;;;;;;5019901;28;20037;-75
2021/03/09 07:07:39;;;;;;;41.30;22.38;;;;;;;;;;5024086;28;20029;-75
2021/03/09 07:10:15;;;;;;;41.40;21.50;;;;;;;;;;5024924;28;20045;-76
2021/03/09 07:12:43;;;;;;;43.92;23.33;;;;;;;;;;5018164;28;20060;-75
2021/03/09 07:15:10;;;;;;;43.60;23.65;;;;;;;;;;5017671;28;20049;-75
2021/03/09 07:17:37;;;;;;;40.88;23.25;;;;;;;;;;5023162;28;20029;-76
2021/03/09 07:20:06;;;;;;;36.05;21.52;;;;;;;;;;5017811;28;20029;-75
2021/03/09 07:22:33;;;;;;;44.05;23.98;;;;;;;;;;5019851;28;20029;-76
2021/03/09 07:25:12;;;;;;;42.03;21.95;;;;;;;;;;5023160;28;20028;-77
2021/03/09 07:27:57;;;;;;;39.40;22.17;;;;;;;;;;5022800;28;20438;-77
2021/03/09 07:30:24;;;;;;;42.53;24.95;;;;;;;;;;5021349;28;20254;-76
2021/03/09 07:32:57;;;;;;;35.88;22.42;;;;;;;;;;5017789;28;20543;-76
2021/03/09 07:35:23;;;;;;;41.38;21.77;;;;;;;;;;5018861;28;20026;-76
2021/03/09 07:37:53;;;;;;;47.10;22.63;;;;;;;;;;5023930;28;20108;-77
2021/03/09 07:40:21;;;;;;;41.15;22.38;;;;;;;;;;5026892;28;20049;-77
2021/03/09 07:42:47;;;;;;;43.25;22.58;;;;;;;;;;5021533;28;20056;-77
2021/03/09 07:45:14;;;;;;;47.25;23.63;;;;;;;;;;5021318;28;20032;-77
2021/03/09 07:47:45;;;;;;;50.67;23.23;;;;;;;;;;5020645;28;20109;-77
2021/03/09 07:50:12;;;;;;;38.78;23.25;;;;;;;;;;5022509;28;20079;-76
2021/03/09 07:52:38;;;;;;;43.83;24.10;;;;;;;;;;5023527;28;20087;-76
2021/03/09 07:55:04;;;;;;;45.03;23.88;;;;;;;;;;5021437;28;20037;-77
2021/03/09 07:57:32;;;;;;;43.85;23.63;;;;;;;;;;5018213;28;20046;-77
2021/03/09 08:00:01;;;;;;;40.35;25.63;;;;;;;;;;5010961;28;20030;-77
2021/03/09 08:02:43;;;;;;;44.63;23.67;;;;;;;;;;5022353;28;20108;-76
2021/03/09 08:05:10;;;;;;;40.80;23.08;;;;;;;;;;5027172;28;20104;-77
2021/03/09 08:08:08;;;;;;;38.33;24.05;;;;;;;;;;5012538;28;20113;-76
2021/03/09 08:10:34;;;;;;;43.50;23.73;;;;;;;;;;4994232;28;20061;-76
2021/03/09 08:13:12;;;;;;;48.67;25.35;;;;;;;;;;5013472;28;20396;-76
2021/03/09 08:15:39;;;;;;;44.10;24.98;;;;;;;;;;5015530;28;20022;-77
2021/03/09 08:18:19;;;;;;;50.30;26.00;;;;;;;;;;5026513;28;20030;-75
2021/03/09 08:20:55;;;;;;;41.67;25.02;;;;;;;;;;5029770;28;20045;-76
2021/03/09 08:23:35;;;;;;;38.90;23.85;;;;;;;;;;5020573;28;20034;-76
2021/03/09 08:26:25;;;;;;;40.53;24.17;;;;;;;;;;5021405;28;20101;-76
2021/03/09 08:28:51;;;;;;;37.60;22.80;;;;;;;;;;5007206;28;20038;-76
2021/03/09 08:31:20;;;;;;;42.10;24.45;;;;;;;;;;5011108;28;20041;-77
2021/03/09 08:33:47;;;;;;;44.13;24.27;;;;;;;;;;5021140;28;20100;-76
2021/03/09 08:36:28;;;;;;;41.10;24.17;;;;;;;;;;5029201;28;20041;-76
2021/03/09 08:39:10;;;;;;;41.28;24.23;;;;;;;;;;5026578;28;20512;-76
2021/03/09 08:41:40;;;;;;;41.20;23.25;;;;;;;;;;5024577;28;20092;-76
2021/03/09 08:44:18;;;;;;;43.97;24.67;;;;;;;;;;5025751;28;20021;-76
2021/03/09 08:46:55;;;;;;;42.60;24.70;;;;;;;;;;5030621;28;20026;-76
2021/03/09 08:49:36;;;;;;;41.33;23.92;;;;;;;;;;5023348;28;20025;-76
2021/03/09 08:52:03;;;;;;;38.00;22.50;;;;;;;;;;5015026;28;20030;-77
2021/03/09 08:54:29;;;;;;;43.65;24.60;;;;;;;;;;5027973;28;20040;-76
2021/03/09 08:56:56;;;;;;;46.42;23.48;;;;;;;;;;5023098;28;20034;-76
2021/03/09 08:59:26;;;;;;;40.25;23.90;;;;;;;;;;5022765;28;20045;-77
2021/03/09 09:01:53;;;;;;;38.75;23.60;;;;;;;;;;5025872;28;20025;-78
2021/03/09 09:04:19;;;;;;;37.58;23.17;;;;;;;;;;5018654;28;20026;-78
2021/03/09 09:06:46;;;;;;;43.17;25.73;;;;;;;;;;5031176;28;20018;-80
2021/03/09 09:09:12;;;;;;;47.65;25.00;;;;;;;;;;5010394;28;20503;-79
2021/03/09 09:11:38;;;;;;;44.70;25.73;;;;;;;;;;5032082;28;20049;-77
2021/03/09 09:14:15;;;;;;;46.78;24.55;;;;;;;;;;5032597;28;20093;-78
2021/03/09 09:16:41;;;;;;;41.53;24.10;;;;;;;;;;5034348;28;20125;-76
2021/03/09 09:19:07;;;;;;;45.58;24.98;;;;;;;;;;5028995;28;20116;-78
2021/03/09 09:21:42;;;;;;;44.08;25.05;;;;;;;;;;5027077;28;20600;-78
2021/03/09 09:24:15;;;;;;;45.80;26.15;;;;;;;;;;5028730;28;20030;-78
2021/03/09 09:26:42;;;;;;;45.00;26.70;;;;;;;;;;5025651;28;20021;-78
2021/03/09 09:29:08;;;;;;;44.33;27.08;;;;;;;;;;5012034;28;20112;-79
2021/03/09 09:31:34;;;;;;;49.53;25.08;;;;;;;;;;5019921;28;20026;-78
2021/03/09 09:34:02;;;;;;;54.65;28.20;;;;;;;;;;5028103;28;20033;-78
2021/03/09 09:36:28;;;;;;;45.90;27.95;;;;;;;;;;5034007;28;20057;-77
2021/03/09 09:38:55;;;;;;;47.33;26.67;;;;;;;;;;5022520;28;20108;-77
2021/03/09 09:41:22;;;;;;;49.80;26.75;;;;;;;;;;5022788;28;20021;-77
2021/03/09 09:43:48;;;;;;;51.50;28.42;;;;;;;;;;5032074;28;20024;-77
2021/03/09 09:46:22;;;;;;;56.92;28.77;;;;;;;;;;5023193;28;20021;-77
2021/03/09 09:48:48;;;;;;;54.88;29.02;;;;;;;;;;5021086;28;20491;-77
2021/03/09 09:51:15;;;;;;;52.42;29.42;;;;;;;;;;5019614;28;20014;-77
2021/03/09 09:53:42;;;;;;;50.47;28.75;;;;;;;;;;5027554;28;20018;-77
2021/03/09 09:56:10;;;;;;;56.90;29.13;;;;;;;;;;5020744;28;20033;-77
2021/03/09 09:58:43;;;;;;;58.15;28.63;;;;;;;;;;5018282;28;20395;-77
2021/03/09 10:01:09;;;;;;;53.63;27.83;;;;;;;;;;5023389;28;20044;-77
2021/03/09 10:03:49;;;;;;;53.15;27.92;;;;;;;;;;5023977;28;20026;-77
2021/03/09 10:06:16;;;;;;;51.08;27.08;;;;;;;;;;5015237;28;20029;-77
2021/03/09 10:08:43;;;;;;;56.03;27.63;;;;;;;;;;5020136;28;20009;-76
2021/03/09 10:11:10;;;;;;;55.35;29.50;;;;;;;;;;5026455;28;20161;-77
2021/03/09 10:13:36;;;;;;;63.90;32.72;;;;;;;;;;5031444;28;20420;-77
2021/03/09 10:16:03;;;;;;;58.30;29.90;;;;;;;;;;5030075;28;20186;-76
2021/03/09 10:18:30;;;;;;;53.50;27.20;;;;;;;;;;5027730;28;20267;-77
2021/03/09 10:21:05;;;;;;;52.28;29.23;;;;;;;;;;5015602;28;20556;-77
2021/03/09 10:23:32;;;;;;;64.10;31.10;;;;;;;;;;5012818;28;20065;-78
2021/03/09 10:25:58;;;;;;;59.20;29.95;;;;;;;;;;5023920;28;20057;-77
2021/03/09 10:28:28;;;;;;;57.05;30.23;;;;;;;;;;5029671;28;20249;-77
2021/03/09 10:30:55;;;;;;;57.05;31.50;;;;;;;;;;5028809;28;20039;-76
2021/03/09 10:33:21;;;;;;;57.40;30.98;;;;;;;;;;5024196;28;20025;-76
2021/03/09 10:36:04;;;;;;;55.95;29.45;;;;;;;;;;5026105;28;20025;-76
2021/03/09 10:38:30;;;;;;;65.50;31.10;;;;;;;;;;5021599;28;20237;-76
2021/03/09 10:40:57;;;;;;;59.15;30.25;;;;;;;;;;5022890;28;20078;-76
2021/03/09 10:43:58;;;;;;;61.90;33.17;;;;;;;;;;5028088;28;20025;-76
2021/03/09 10:46:24;;;;;;;58.97;31.65;;;;;;;;;;5006903;28;20038;-76
2021/03/09 10:48:50;;;;;;;63.80;34.22;;;;;;;;;;5022100;28;20033;-76
2021/03/09 10:51:17;;;;;;;68.30;34.65;;;;;;;;;;5028201;28;20033;-75
2021/03/09 10:53:43;;;;;;;68.70;34.00;;;;;;;;;;5030303;28;20036;-76
2021/03/09 10:56:10;;;;;;;69.93;33.40;;;;;;;;;;5015505;28;20107;-76
2021/03/09 10:58:36;;;;;;;60.17;32.28;;;;;;;;;;5016907;28;20033;-76
2021/03/09 11:01:02;;;;;;;75.82;35.20;;;;;;;;;;5029374;28;20017;-75
2021/03/09 11:03:28;;;;;;;72.78;35.30;;;;;;;;;;5025252;28;20099;-76
2021/03/09 11:05:54;;;;;;;68.22;34.28;;;;;;;;;;5028978;28;20021;-76
2021/03/09 11:08:22;;;;;;;68.30;34.63;;;;;;;;;;5030097;28;20104;-76
2021/03/09 11:10:48;;;;;;;61.47;33.55;;;;;;;;;;5029574;28;20128;-75
2021/03/09 11:13:16;;;;;;;73.25;36.17;;;;;;;;;;5026022;28;20281;-76
2021/03/09 11:15:42;;;;;;;70.07;32.40;;;;;;;;;;5022387;28;20037;-76
2021/03/09 11:18:08;;;;;;;67.20;31.60;;;;;;;;;;5018687;28;20412;-77
2021/03/09 11:20:34;;;;;;;61.75;33.10;;;;;;;;;;5026459;28;20021;-76
2021/03/09 11:23:00;;;;;;;64.50;33.55;;;;;;;;;;5027998;28;20079;-76
2021/03/09 11:25:27;;;;;;;66.22;31.98;;;;;;;;;;5028023;28;20022;-76
2021/03/09 11:27:53;;;;;;;69.00;33.47;;;;;;;;;;5027551;28;20057;-76
2021/03/09 11:30:20;;;;;;;68.97;31.58;;;;;;;;;;5021518;28;20025;-76
2021/03/09 13:00:30;;;;;;;50.58;29.80;;;;;;;;;;5027779;28;20037;-72
2021/03/09 13:02:56;;;;;;;50.38;29.27;;;;;;;;;;5026731;28;20037;-73
2021/03/09 13:05:22;;;;;;;45.90;28.92;;;;;;;;;;5025309;28;20037;-73
2021/03/09 13:07:48;;;;;;;49.22;28.95;;;;;;;;;;5018138;28;20033;-73
2021/03/09 13:10:14;;;;;;;52.15;30.15;;;;;;;;;;5025533;28;20321;-73
2021/03/09 13:12:40;;;;;;;43.75;28.20;;;;;;;;;;5031503;28;20029;-73
2021/03/09 13:15:07;;;;;;;47.92;30.52;;;;;;;;;;5031810;28;20303;-73
2021/03/09 13:17:33;;;;;;;50.35;30.52;;;;;;;;;;5027965;28;20018;-73
2021/03/09 13:19:59;;;;;;;49.95;28.65;;;;;;;;;;5025774;28;20026;-73
2021/03/09 13:22:28;;;;;;;45.42;27.23;;;;;;;;;;5019851;28;20021;-73
2021/03/09 13:24:54;;;;;;;45.03;28.73;;;;;;;;;;5018694;28;20517;-73
2021/03/09 13:27:20;;;;;;;48.33;27.92;;;;;;;;;;5012311;28;20510;-73
2021/03/09 13:29:46;;;;;;;48.63;26.42;;;;;;;;;;5016206;28;20025;-73
2021/03/09 13:32:12;;;;;;;44.95;27.10;;;;;;;;;;5023947;28;20033;-73
2021/03/09 13:34:38;;;;;;;49.67;29.35;;;;;;;;;;5015629;28;20026;-73
2021/03/09 13:37:05;;;;;;;46.42;27.00;;;;;;;;;;5019925;28;20041;-73
2021/03/09 13:39:31;;;;;;;44.30;29.08;;;;;;;;;;5024902;28;20115;-73
2021/03/09 13:41:57;;;;;;;48.95;28.65;;;;;;;;;;5009916;28;20041;-74
2021/03/09 13:44:23;;;;;;;47.58;27.77;;;;;;;;;;5018166;28;20037;-73
2021/03/09 13:46:49;;;;;;;44.22;26.10;;;;;;;;;;5019592;28;20029;-73
2021/03/09 13:49:15;;;;;;;48.03;29.42;;;;;;;;;;5018499;28;20034;-73
2021/03/09 13:51:41;;;;;;;46.38;28.33;;;;;;;;;;5018026;28;20065;-73
2021/03/09 13:54:07;;;;;;;46.03;26.83;;;;;;;;;;5020097;28;20400;-73
2021/03/09 13:56:33;;;;;;;43.22;28.42;;;;;;;;;;5013973;28;20030;-72
2021/03/09 13:58:59;;;;;;;46.70;27.65;;;;;;;;;;5019552;28;20037;-73
2021/03/09 14:01:25;;;;;;;43.28;26.63;;;;;;;;;;5016560;28;20013;-73
2021/03/09 14:30:19;;;;;;;50.97;29.25;;;;;;;;;;5037469;23;20061;-92
2021/03/09 14:32:46;;;;;;;52.30;29.05;;;;;;;;;;5018656;28;20028;-92
2021/03/09 14:35:13;;;;;;;44.72;27.92;;;;;;;;;;5042359;28;20025;-93
2021/03/09 14:37:39;;;;;;;43.17;27.92;;;;;;;;;;5041802;28;20116;-92
2021/03/09 14:40:07;;;;;;;52.30;28.35;;;;;;;;;;5034064;28;20059;-94
2021/03/09 14:42:33;;;;;;;45.53;24.98;;;;;;;;;;5023083;28;20191;-92
2021/03/09 14:44:59;;;;;;;46.20;27.67;;;;;;;;;;5022455;28;20024;-92
2021/03/09 14:47:25;;;;;;;49.47;29.40;;;;;;;;;;5028725;28;20060;-91
2021/03/09 14:49:51;;;;;;;47.28;29.17;;;;;;;;;;5038880;28;20028;-92
2021/03/09 14:52:17;;;;;;;47.17;28.73;;;;;;;;;;5038523;28;20033;-92
2021/03/09 14:54:43;;;;;;;44.50;27.67;;;;;;;;;;5036712;28;20025;-93
2021/03/09 14:57:10;;;;;;;51.67;28.45;;;;;;;;;;5037972;28;20025;-91
2021/03/09 14:59:37;;;;;;;46.53;28.85;;;;;;;;;;5017065;28;20059;-92
2021/03/09 15:02:03;;;;;;;48.55;27.40;;;;;;;;;;5042449;28;20032;-92
2021/03/09 15:04:29;;;;;;;43.53;27.08;;;;;;;;;;5041739;28;20024;-92
2021/03/09 15:06:55;;;;;;;43.95;28.42;;;;;;;;;;5045964;28;20112;-93
2021/03/09 15:09:21;;;;;;;50.78;29.80;;;;;;;;;;5021901;28;20037;-95
2021/03/09 15:11:47;;;;;;;48.55;27.85;;;;;;;;;;5019285;28;20068;-95
2021/03/09 15:14:14;;;;;;;45.67;26.88;;;;;;;;;;5038639;28;20026;-94
2021/03/09 15:16:40;;;;;;;47.05;29.85;;;;;;;;;;5043519;28;20033;-96
2021/03/09 15:19:06;;;;;;;37.95;27.15;;;;;;;;;;5045182;28;20084;-94
2021/03/09 15:21:32;;;;;;;44.33;27.60;;;;;;;;;;5045946;28;20112;-94
2021/03/09 15:23:58;;;;;;;48.20;27.10;;;;;;;;;;5041474;28;20102;-94
2021/03/09 15:26:24;;;;;;;47.50;26.83;;;;;;;;;;5037495;28;20014;-94
2021/03/09 15:28:50;;;;;;;47.38;28.70;;;;;;;;;;5016737;28;20039;-94
2021/03/09 15:31:16;;;;;;;42.33;26.00;;;;;;;;;;5020098;28;20033;-93
2021/03/09 15:33:43;;;;;;;48.85;26.42;;;;;;;;;;5031550;28;20032;-94
2021/03/09 15:36:09;;;;;;;41.00;26.02;;;;;;;;;;5040209;28;20033;-93
2021/03/09 15:38:35;;;;;;;41.15;26.65;;;;;;;;;;5020187;28;20078;-95
2021/03/09 15:41:02;;;;;;;45.95;28.25;;;;;;;;;;5014809;28;20030;-95
2021/03/09 15:43:28;;;;;;;45.45;25.25;;;;;;;;;;5046084;28;20048;-95
2021/03/09 15:45:55;;;;;;;47.55;27.20;;;;;;;;;;5044525;28;20034;-94
2021/03/09 15:48:21;;;;;;;45.92;27.48;;;;;;;;;;5033510;28;20033;-94
2021/03/09 15:50:47;;;;;;;42.50;25.63;;;;;;;;;;5031437;28;20044;-95
2021/03/09 15:53:13;;;;;;;42.05;25.40;;;;;;;;;;5023955;28;20045;-92
2021/03/09 15:55:40;;;;;;;40.40;26.58;;;;;;;;;;5034715;28;20022;-94
2021/03/09 15:58:06;;;;;;;41.10;25.90;;;;;;;;;;5036331;28;20060;-94
2021/03/09 16:00:32;;;;;;;42.00;25.90;;;;;;;;;;5038240;28;20021;-94
2021/03/09 16:02:58;;;;;;;41.03;26.00;;;;;;;;;;5035419;28;20086;-95
2021/03/09 16:05:27;;;;;;;40.63;24.67;;;;;;;;;;5049542;28;20029;-94
2021/03/09 16:07:53;;;;;;;41.92;24.98;;;;;;;;;;5035764;28;20613;-94
2021/03/09 16:10:19;;;;;;;45.85;26.83;;;;;;;;;;5030682;28;20556;-94
2021/03/09 16:12:46;;;;;;;39.33;24.80;;;;;;;;;;5015123;28;20030;-94
2021/03/09 16:15:12;;;;;;;40.15;25.30;;;;;;;;;;5040291;28;20094;-90